Time;durP1;ratioP1;P1;durP2;ratioP2;P2;SDS_P1;SDS_P2;PMS_P1;PMS_P2;Temp;Humidity;BMP_temperature;BMP_pressure;BME280_temperature;BME280_humidity;BME280_pressure;Samples;Min_cycle;Max_cycle;Signal;HPM_P1;HPM_P2
2023/07/03 00:02:05;;;;;;;;;;;21.30;56.90;;;21.58;38.45;98391.69;4982338;28;123922;-81
2023/07/03 00:04:35;;;;;;;;;;;21.30;57.00;;;21.55;38.63;98393.28;4977887;28;114383;-81
2023/07/03 00:07:03;;;;;;;;;;;21.40;57.20;;;21.52;38.47;98387.63;4985716;28;113833;-82
2023/07/03 00:09:31;;;;;;;;;;;21.30;57.10;;;21.49;38.78;98392.03;4980802;28;124239;-82
2023/07/03 00:11:58;;;;;;;;;;;21.30;57.20;;;21.47;38.59;98388.03;4978843;28;123984;-81
2023/07/03 00:14:24;;;;;;;;;;;21.30;57.30;;;21.43;38.63;98395.63;4982454;28;114446;-81
2023/07/03 00:16:50;;;;;;;;;;;21.20;57.30;;;21.36;38.96;98390.75;4964225;28;112669;-82
2023/07/03 00:19:16;;;;;;;;;;;21.20;57.40;;;21.31;39.20;98389.13;4978173;28;124193;-81
2023/07/03 00:21:43;;;;;;;;;;;21.20;57.50;;;21.30;38.87;98395.94;4984829;28;124077;-81
2023/07/03 00:24:10;;;;;;;;;;;21.20;57.60;;;21.29;39.19;98390.72;4985434;28;115277;-81
2023/07/03 00:26:37;;;;;;;;;;;21.10;57.70;;;21.28;38.90;98389.09;4972433;28;114693;-81
2023/07/03 00:29:04;;;;;;;;;;;21.10;57.80;;;21.25;39.12;98401.13;4980800;28;124317;-81
2023/07/03 00:31:31;;;;;;;;;;;21.10;58.00;;;21.25;39.24;98395.50;4983492;28;123269;-81
2023/07/03 00:33:59;;;;;;;;;;;21.00;58.00;;;21.24;39.12;98400.31;4971181;28;113646;-82
2023/07/03 00:36:26;;;;;;;;;;;21.00;58.00;;;21.23;39.21;98395.91;4989040;28;113605;-81
2023/07/03 00:38:57;;;;;;;;;;;21.00;58.10;;;21.23;39.54;98395.91;4982198;28;123375;-81
2023/07/03 00:41:24;;;;;;;;;;;21.00;58.20;;;21.22;39.27;98393.47;4986448;28;123973;-79
2023/07/03 00:43:51;;;;;;;;;;;20.90;58.20;;;21.18;39.45;98399.91;4976026;28;114145;-81
2023/07/03 00:46:19;;;;;;;;;;;21.00;58.40;;;21.15;39.54;98397.06;4987719;28;113159;-81
2023/07/03 00:48:46;;;;;;;;;;;20.90;58.30;;;21.13;39.52;98399.47;4967355;28;123456;-82
2023/07/03 00:51:14;;;;;;;;;;;20.90;58.40;;;21.10;39.70;98392.63;4984149;28;124064;-81
2023/07/03 00:53:40;;;;;;;;;;;20.90;58.40;;;21.08;39.44;98392.22;4968062;28;114664;-82
2023/07/03 00:56:06;;;;;;;;;;;20.80;58.40;;;21.08;39.64;98394.22;4983372;28;113601;-83
2023/07/03 00:58:33;;;;;;;;;;;20.90;58.70;;;21.07;39.83;98390.59;4983730;28;124819;-83
2023/07/03 01:01:17;;;;;;;;;;;20.80;58.60;;;21.05;39.88;98390.19;4986333;28;123517;-83
2023/07/03 01:03:48;;;;;;;;;;;20.80;58.70;;;21.02;39.73;98396.59;4989395;28;114589;-82
2023/07/03 01:06:19;;;;;;;;;;;20.80;58.80;;;21.01;39.68;98388.56;4988505;28;113901;-82
2023/07/03 01:08:52;;;;;;;;;;;20.80;58.90;;;20.98;39.99;98386.53;4961273;28;123703;-83
2023/07/03 01:11:19;;;;;;;;;;;20.80;59.00;;;20.95;39.75;98385.31;4972327;28;123127;-82
2023/07/03 01:13:47;;;;;;;;;;;20.70;59.00;;;20.95;39.96;98388.94;4970613;28;114600;-83
2023/07/03 01:16:13;;;;;;;;;;;20.70;59.20;;;20.94;39.72;98378.91;4988109;28;115078;-83
2023/07/03 01:18:40;;;;;;;;;;;20.70;59.20;;;20.93;39.87;98390.53;4989194;28;124247;-83
2023/07/03 01:21:15;;;;;;;;;;;20.70;59.30;;;20.90;39.74;98385.69;4987209;28;123837;-83
2023/07/03 01:23:46;;;;;;;;;;;20.70;59.20;;;20.89;39.94;98386.88;4986310;28;115526;-83
2023/07/03 01:26:14;;;;;;;;;;;20.70;59.20;;;20.87;40.21;98380.84;4986533;28;114429;-83
2023/07/03 01:28:42;;;;;;;;;;;20.70;59.30;;;20.86;39.91;98379.25;4985461;28;123910;-83
2023/07/03 01:31:09;;;;;;;;;;;20.60;59.30;;;20.84;39.87;98376.03;4986417;28;123877;-83
2023/07/03 01:33:41;;;;;;;;;;;20.60;59.40;;;20.81;40.17;98388.03;4985862;28;114350;-83
2023/07/03 01:36:11;;;;;;;;;;;20.50;59.40;;;20.78;39.99;98389.63;4979725;28;113770;-84
2023/07/03 01:38:45;;;;;;;;;;;20.50;59.50;;;20.77;40.17;98384.38;4965344;28;123290;-83
2023/07/03 01:41:13;;;;;;;;;;;20.50;59.70;;;20.76;40.23;98385.59;4986363;28;125327;-84
2023/07/03 01:43:40;;;;;;;;;;;20.50;59.80;;;20.76;40.35;98382.78;4980813;28;114403;-84
2023/07/03 01:46:10;;;;;;;;;;;20.50;59.80;;;20.76;40.26;98377.16;4985306;28;114914;-84
2023/07/03 01:48:38;;;;;;;;;;;20.40;59.70;;;20.73;40.48;98379.56;4988231;28;123827;-83
2023/07/03 01:51:07;;;;;;;;;;;20.40;59.80;;;20.75;40.67;98376.38;4969079;28;122977;-83
2023/07/03 01:53:47;;;;;;;;;;;20.50;59.90;;;20.74;40.26;98367.16;4987452;28;114485;-84
2023/07/03 01:56:24;;;;;;;;;;;20.50;60.00;;;20.78;40.18;98372.78;4989020;28;113660;-83
2023/07/03 01:58:53;;;;;;;;;;;20.50;60.00;;;20.83;40.36;98366.78;4987869;28;123824;-83
2023/07/03 02:01:31;;;;;;;;;;;20.50;60.10;;;20.90;40.46;98366.84;4976246;28;123095;-83
2023/07/03 02:04:11;;;;;;;;;;;20.60;60.30;;;20.97;40.14;98357.66;4977787;28;115602;-83
2023/07/03 02:06:40;;;;;;;;;;;20.60;60.20;;;21.02;40.07;98364.91;4988658;28;114479;-83
2023/07/03 02:09:10;;;;;;;;;;;20.70;60.20;;;21.05;40.23;98359.28;4985251;28;124562;-83
2023/07/03 02:11:36;;;;;;;;;;;20.70;60.20;;;21.09;40.06;98354.50;4972715;28;123766;-83
2023/07/03 02:14:03;;;;;;;;;;;20.70;60.20;;;21.15;40.08;98364.16;4989915;28;115046;-83
2023/07/03 02:16:29;;;;;;;;;;;20.80;60.30;;;21.18;39.96;98363.38;4979883;28;113092;-83
2023/07/03 02:18:57;;;;;;;;;;;20.80;60.20;;;21.23;39.77;98364.22;4978068;28;124890;-83
2023/07/03 02:21:25;;;;;;;;;;;20.80;60.20;;;21.25;39.81;98362.63;4973838;28;123826;-83
2023/07/03 02:23:51;;;;;;;;;;;20.90;60.20;;;21.28;39.68;98363.81;4988663;28;113925;-83
2023/07/03 02:26:22;;;;;;;;;;;20.90;60.30;;;21.30;39.89;98364.22;4980746;28;113858;-83
2023/07/03 02:28:48;;;;;;;;;;;20.90;60.20;;;21.31;39.87;98363.84;4982196;28;124245;-83
2023/07/03 02:31:15;;;;;;;;;;;20.90;60.20;;;21.32;39.62;98367.44;4987042;28;123904;-83
2023/07/03 02:33:43;;;;;;;;;;;21.00;60.20;;;21.36;40.14;98365.47;4990663;28;113319;-83
2023/07/03 02:36:09;;;;;;;;;;;21.00;60.30;;;21.38;39.73;98358.25;4990561;28;113403;-83
2023/07/03 02:38:38;;;;;;;;;;;21.00;60.20;;;21.39;39.85;98362.69;4985461;28;124193;-83
2023/07/03 02:41:04;;;;;;;;;;;21.00;60.00;;;21.39;39.80;98356.28;4982444;28;123528;-83
2023/07/03 02:43:31;;;;;;;;;;;21.00;59.90;;;21.35;39.54;98361.03;4984076;28;114356;-83
2023/07/03 02:46:06;;;;;;;;;;;21.00;59.90;;;21.33;39.53;98360.63;4982789;28;113695;-83
2023/07/03 02:48:32;;;;;;;;;;;21.00;59.90;;;21.32;39.88;98359.00;4970219;28;124052;-83
2023/07/03 02:50:59;;;;;;;;;;;21.00;60.60;;;21.33;39.62;98347.38;4985212;28;123893;-84
2023/07/03 02:53:27;;;;;;;;;;;21.00;59.90;;;21.35;39.61;98353.41;4987837;28;115236;-83
2023/07/03 02:55:56;;;;;;;;;;;21.00;60.00;;;21.37;39.70;98361.44;4982375;28;115143;-83
2023/07/03 02:58:24;;;;;;;;;;;21.00;60.00;;;21.37;39.61;98358.63;4986022;28;123810;-83
2023/07/03 03:00:51;;;;;;;;;;;21.00;60.00;;;21.37;39.65;98347.41;4977294;28;124052;-83
2023/07/03 03:03:18;;;;;;;;;;;21.00;60.00;;;21.33;39.52;98355.00;4970117;28;114819;-83
2023/07/03 03:05:44;;;;;;;;;;;21.00;60.00;;;21.30;39.56;98353.78;4982814;28;113940;-83
2023/07/03 03:08:11;;;;;;;;;;;21.00;60.10;;;21.26;40.11;98352.97;4988027;28;123957;-83
2023/07/03 03:10:37;;;;;;;;;;;21.00;60.10;;;21.24;40.16;98348.94;4972338;28;124102;-83
2023/07/03 03:13:04;;;;;;;;;;;21.00;60.20;;;21.22;39.91;98345.72;4969751;28;114176;-83
2023/07/03 03:15:35;;;;;;;;;;;20.90;60.20;;;21.17;40.28;98344.91;4989565;28;112820;-83
2023/07/03 03:18:02;;;;;;;;;;;20.90;60.30;;;21.15;39.60;98347.31;4982194;28;124382;-83
2023/07/03 03:20:28;;;;;;;;;;;20.90;60.40;;;21.13;40.18;98351.72;4975832;28;124078;-83
2023/07/03 03:22:54;;;;;;;;;;;20.80;60.40;;;21.09;40.19;98348.88;4987654;28;114395;-83
2023/07/03 03:25:26;;;;;;;;;;;20.80;60.50;;;21.07;40.41;98350.47;4989947;28;113848;-83
2023/07/03 03:27:52;;;;;;;;;;;20.80;60.50;;;21.05;40.20;98358.50;4991111;28;124240;-83
2023/07/03 03:30:18;;;;;;;;;;;20.80;60.80;;;21.04;40.61;98346.47;4986800;28;124169;-82
2023/07/03 03:32:44;;;;;;;;;;;20.80;60.80;;;21.02;40.31;98342.44;4962473;28;113681;-83
2023/07/03 03:35:11;;;;;;;;;;;20.80;60.90;;;21.01;40.61;98343.59;4959714;28;112721;-84
2023/07/03 03:37:37;;;;;;;;;;;20.70;60.90;;;21.01;40.24;98344.44;4987723;28;124449;-83
2023/07/03 03:40:07;;;;;;;;;;;20.70;61.00;;;21.01;40.32;98340.81;4987965;28;124519;-82
2023/07/03 03:42:36;;;;;;;;;;;20.70;61.10;;;21.02;40.61;98348.84;5000993;28;108109;-83
2023/07/03 03:45:05;;;;;;;;;;;20.70;61.10;;;21.02;40.74;98354.47;4978597;28;114620;-83
2023/07/03 03:47:32;;;;;;;;;;;20.70;61.10;;;21.04;40.67;98346.47;4983836;28;124211;-83
2023/07/03 03:49:58;;;;;;;;;;;20.70;61.20;;;21.03;40.55;98350.44;4968038;28;123366;-83
2023/07/03 03:52:24;;;;;;;;;;;20.70;61.20;;;21.00;40.43;98344.81;4984725;28;114756;-83
2023/07/03 03:54:51;;;;;;;;;;;20.70;61.20;;;20.98;40.77;98350.81;4986909;28;113704;-83
2023/07/03 03:57:17;;;;;;;;;;;20.60;61.30;;;20.96;40.57;98358.84;4987559;28;124108;-83
2023/07/03 03:59:43;;;;;;;;;;;20.60;61.30;;;20.94;40.94;98359.22;4977539;28;123840;-84
2023/07/03 04:02:09;;;;;;;;;;;20.60;61.50;;;20.91;40.70;98360.03;4988822;28;113338;-83
2023/07/03 04:04:36;;;;;;;;;;;20.60;61.70;;;20.91;40.68;98364.84;4988778;28;113982;-83
2023/07/03 04:07:03;;;;;;;;;;;20.60;61.80;;;20.91;41.10;98359.22;4987328;28;124461;-83
2023/07/03 04:09:29;;;;;;;;;;;20.60;61.80;;;20.92;40.83;98358.81;4982555;28;122995;-83
2023/07/03 04:11:55;;;;;;;;;;;20.60;62.00;;;20.92;41.22;98360.81;4988082;28;114375;-83
2023/07/03 04:14:22;;;;;;;;;;;20.60;62.00;;;20.92;40.75;98366.44;4984746;28;113714;-83
2023/07/03 04:16:48;;;;;;;;;;;20.60;62.20;;;20.91;41.24;98371.25;4987793;28;123381;-83
2023/07/03 04:19:18;;;;;;;;;;;20.60;62.30;;;20.90;41.21;98363.22;4987914;28;122850;-83
2023/07/03 04:21:45;;;;;;;;;;;20.50;62.30;;;20.89;41.33;98367.22;4988331;28;113437;-83
2023/07/03 04:24:11;;;;;;;;;;;20.60;62.40;;;20.87;41.14;98372.41;4981900;28;113723;-84
2023/07/03 04:26:40;;;;;;;;;;;20.60;62.50;;;20.87;41.30;98359.19;4981037;28;124159;-82
2023/07/03 04:29:06;;;;;;;;;;;20.60;62.60;;;20.91;41.19;98370.47;4980607;28;124268;-84
2023/07/03 04:31:33;;;;;;;;;;;20.60;62.60;;;20.93;41.42;98370.88;4968910;28;114254;-84
2023/07/03 04:34:00;;;;;;;;;;;20.60;62.70;;;20.96;41.19;98373.69;4985724;28;115296;-83
2023/07/03 04:36:26;;;;;;;;;;;20.60;62.90;;;20.96;41.57;98381.31;4983743;28;124424;-83
2023/07/03 04:38:57;;;;;;;;;;;20.60;62.90;;;20.96;41.64;98384.13;4981252;28;123958;-83
2023/07/03 04:41:24;;;;;;;;;;;20.60;63.00;;;20.93;41.45;98385.72;4991997;28;113366;-83
2023/07/03 04:43:56;;;;;;;;;;;20.60;63.10;;;20.92;41.63;98384.09;4975218;28;113049;-83
2023/07/03 04:46:27;;;;;;;;;;;20.60;63.20;;;20.90;41.86;98386.50;4993037;28;124275;-84
2023/07/03 04:49:03;;;;;;;;;;;20.60;63.20;;;20.88;41.83;98383.28;4987851;28;124542;-84
2023/07/03 04:51:30;;;;;;;;;;;20.60;63.50;;;20.88;41.71;98396.53;4990499;28;114399;-85
2023/07/03 04:54:00;;;;;;;;;;;20.50;63.50;;;20.86;41.81;98384.88;4976015;28;113885;-84
2023/07/03 04:56:29;;;;;;;;;;;20.60;63.60;;;20.86;41.82;98384.88;4989341;28;124828;-84
2023/07/03 04:58:56;;;;;;;;;;;20.50;63.70;;;20.87;42.10;98386.47;4977878;28;124184;-84
2023/07/03 05:01:25;;;;;;;;;;;20.50;63.80;;;20.88;42.13;98386.09;4971659;28;113380;-84
2023/07/03 05:03:51;;;;;;;;;;;20.50;64.00;;;20.86;42.36;98384.88;4973468;28;114541;-84
2023/07/03 05:06:17;;;;;;;;;;;20.50;64.00;;;20.85;42.13;98391.69;4974758;28;123984;-84
2023/07/03 05:08:46;;;;;;;;;;;20.50;64.10;;;20.84;42.25;98392.88;4977467;28;124097;-83
2023/07/03 05:11:13;;;;;;;;;;;20.50;64.10;;;20.84;42.20;98398.47;4983652;28;114507;-83
2023/07/03 05:13:39;;;;;;;;;;;20.50;64.20;;;20.82;42.51;98396.09;4984845;28;113917;-84
2023/07/03 05:16:10;;;;;;;;;;;20.50;64.20;;;20.83;42.22;98397.69;4977290;28;123226;-83
2023/07/03 05:18:36;;;;;;;;;;;20.50;64.20;;;20.83;42.46;98402.50;4970118;28;123756;-83
2023/07/03 05:21:03;;;;;;;;;;;20.50;64.40;;;20.81;42.35;98402.88;4980706;28;115238;-82
2023/07/03 05:23:29;;;;;;;;;;;20.50;64.50;;;20.81;42.51;98404.88;4974376;28;113700;-83
2023/07/03 05:25:55;;;;;;;;;;;20.50;64.60;;;20.82;42.31;98400.88;4991151;28;123091;-83
2023/07/03 05:28:24;;;;;;;;;;;20.50;64.70;;;20.83;42.22;98408.13;4990453;28;123781;-83
2023/07/03 05:30:55;;;;;;;;;;;20.50;64.80;;;20.83;42.61;98403.31;4982369;28;113682;-83
2023/07/03 05:33:27;;;;;;;;;;;20.50;64.80;;;20.84;42.56;98407.72;4968729;28;113202;-83
2023/07/03 05:35:53;;;;;;;;;;;20.50;64.80;;;20.87;42.18;98408.94;4988059;28;124428;-83
2023/07/03 05:38:20;;;;;;;;;;;20.50;64.80;;;20.93;42.26;98418.63;4986923;28;124557;-82
2023/07/03 05:40:49;;;;;;;;;;;20.60;65.00;;;21.00;42.47;98417.84;4974654;28;115725;-82
2023/07/03 05:43:16;;;;;;;;;;;20.60;64.90;;;21.05;42.36;98421.09;4988902;28;113191;-82
2023/07/03 05:45:45;;;;;;;;;;;20.70;65.10;;;21.12;42.03;98412.72;4977776;28;123922;-82
2023/07/03 05:48:11;;;;;;;;;;;20.70;65.00;;;21.17;41.87;98412.34;4992760;28;123647;-83
2023/07/03 05:50:37;;;;;;;;;;;20.80;65.10;;;21.24;41.99;98405.94;4981814;28;114435;-81
2023/07/03 05:53:04;;;;;;;;;;;20.80;65.10;;;21.31;42.32;98408.00;4990235;28;113696;-82
2023/07/03 05:55:32;;;;;;;;;;;20.90;65.20;;;21.38;41.80;98405.22;4985644;28;124200;-81
2023/07/03 05:57:58;;;;;;;;;;;21.00;65.10;;;21.43;42.00;98412.50;4987759;28;122698;-82
2023/07/03 06:00:30;;;;;;;;;;;21.00;65.00;;;21.47;41.91;98418.94;4973535;28;114613;-82
2023/07/03 06:02:57;;;;;;;;;;;21.00;65.00;;;21.54;41.75;98419.75;4990403;28;114697;-82
2023/07/03 06:05:26;;;;;;;;;;;21.10;65.10;;;21.58;41.85;98414.97;4968873;28;123819;-82
2023/07/03 06:07:52;;;;;;;;;;;21.10;65.60;;;21.62;41.52;98420.59;4966184;28;123428;-82
2023/07/03 06:10:18;;;;;;;;;;;21.20;64.80;;;21.64;41.45;98412.56;4982807;28;115035;-82
2023/07/03 06:12:44;;;;;;;;;;;21.20;64.60;;;21.67;41.69;98417.41;4986153;28;115403;-82
2023/07/03 06:15:11;;;;;;;;;;;21.30;64.70;;;21.70;41.25;98427.06;4978100;28;124388;-82
2023/07/03 06:17:40;;;;;;;;;;;21.30;64.70;;;21.71;41.45;98428.66;4981994;28;123693;-81
2023/07/03 06:20:10;;;;;;;;;;;21.30;64.60;;;21.75;41.53;98423.88;4987008;28;114601;-82
2023/07/03 06:22:38;;;;;;;;;;;21.30;64.70;;;21.81;41.10;98433.50;4986993;28;114869;-81
2023/07/03 06:25:06;;;;;;;;;;;21.30;64.60;;;21.81;41.50;98427.88;4963305;28;123436;-81
2023/07/03 06:27:33;;;;;;;;;;;21.40;64.60;;;21.83;41.26;98431.91;4973403;28;123961;-82
2023/07/03 06:30:01;;;;;;;;;;;21.40;64.60;;;21.88;41.42;98427.91;4987461;28;115038;-82
2023/07/03 06:32:28;;;;;;;;;;;21.40;64.50;;;21.92;41.29;98427.91;4984097;28;113215;-81
2023/07/03 06:34:56;;;;;;;;;;;21.40;64.50;;;21.95;41.27;98422.31;4983525;28;124304;-82
2023/07/03 06:37:22;;;;;;;;;;;21.50;64.60;;;22.01;41.23;98425.56;4982328;28;123532;-81
2023/07/03 06:39:49;;;;;;;;;;;21.60;64.60;;;22.04;40.84;98436.81;4974234;28;114181;-82
2023/07/03 06:42:15;;;;;;;;;;;21.60;64.50;;;22.06;41.09;98425.16;4973239;28;113595;-80
2023/07/03 06:44:43;;;;;;;;;;;21.60;64.30;;;22.06;40.81;98428.78;4980966;28;123874;-81
2023/07/03 06:47:09;;;;;;;;;;;21.60;64.00;;;22.06;40.91;98440.03;4983505;28;123889;-80
2023/07/03 06:49:38;;;;;;;;;;;21.60;64.10;;;22.06;40.46;98437.22;4964953;28;113627;-81
2023/07/03 06:52:05;;;;;;;;;;;21.60;64.00;;;22.08;40.58;98444.44;4989103;28;113615;-82
2023/07/03 06:54:34;;;;;;;;;;;21.60;63.90;;;22.10;40.50;98450.50;4978135;28;124596;-82
2023/07/03 06:57:03;;;;;;;;;;;21.70;64.00;;;22.10;40.38;98439.22;4977035;28;123556;-81
2023/07/03 06:59:29;;;;;;;;;;;21.70;63.70;;;22.10;40.37;98442.03;4979317;28;115060;-83
2023/07/03 07:01:56;;;;;;;;;;;21.70;63.60;;;22.08;40.41;98448.06;4982675;28;114622;-85
2023/07/03 07:04:26;;;;;;;;;;;21.70;63.50;;;22.08;40.52;98447.25;4985274;28;124647;-88
2023/07/03 07:06:55;;;;;;;;;;;21.70;63.40;;;22.03;40.18;98445.63;4979505;28;124426;-84
2023/07/03 07:09:22;;;;;;;;;;;21.70;63.40;;;22.04;40.34;98447.25;4978446;28;114607;-81
2023/07/03 07:11:48;;;;;;;;;;;21.70;63.40;;;22.06;40.62;98433.59;4982542;28;113610;-84
2023/07/03 07:14:17;;;;;;;;;;;21.70;63.40;;;22.09;40.63;98440.44;4983767;28;124641;-82
2023/07/03 07:16:44;;;;;;;;;;;21.70;63.30;;;22.12;40.15;98436.84;4985599;28;123541;-82
2023/07/03 07:19:12;;;;;;;;;;;21.70;63.30;;;22.16;40.17;98443.25;4984681;28;114971;-82
2023/07/03 07:21:41;;;;;;;;;;;21.80;63.50;;;22.21;40.20;98434.44;4985261;28;113791;-83
2023/07/03 07:24:14;;;;;;;;;;;21.80;63.40;;;22.22;40.39;98450.16;4986567;28;123290;-82
2023/07/03 07:26:43;;;;;;;;;;;21.80;63.30;;;22.19;40.33;98437.69;4983902;28;123984;-82
2023/07/03 07:29:09;;;;;;;;;;;21.80;63.40;;;22.17;40.55;98447.69;4986124;28;114390;-82
2023/07/03 07:31:36;;;;;;;;;;;21.80;63.40;;;22.14;40.40;98446.47;4985984;28;114013;-82
2023/07/03 07:34:04;;;;;;;;;;;21.80;63.40;;;22.14;40.20;98445.66;4987233;28;125040;-82
2023/07/03 07:36:31;;;;;;;;;;;21.80;63.50;;;22.14;40.46;98446.47;4988576;28;123471;-84
2023/07/03 07:38:58;;;;;;;;;;;21.80;63.70;;;22.15;40.49;98461.34;4985616;28;114496;-82
2023/07/03 07:41:25;;;;;;;;;;;21.80;63.70;;;22.14;40.57;98445.66;4987888;28;113412;-82
2023/07/03 07:43:51;;;;;;;;;;;21.80;63.70;;;22.12;40.59;98448.88;4986772;28;124833;-83
2023/07/03 07:46:18;;;;;;;;;;;21.80;63.80;;;22.12;40.64;98459.34;4987832;28;123954;-82
2023/07/03 07:48:47;;;;;;;;;;;21.80;64.00;;;22.11;40.58;98454.91;4958502;28;114253;-82
2023/07/03 07:51:13;;;;;;;;;;;21.80;64.00;;;22.10;41.02;98456.13;4973264;28;113965;-83
2023/07/03 07:53:40;;;;;;;;;;;21.80;64.10;;;22.08;41.23;98464.13;4971979;28;123938;-82
2023/07/03 07:56:07;;;;;;;;;;;21.80;64.30;;;22.06;41.16;98462.53;4980047;28;123918;-83
2023/07/03 07:58:34;;;;;;;;;;;21.80;64.40;;;22.08;40.98;98464.13;4980174;28;114200;-82
2023/07/03 08:01:03;;;;;;;;;;;21.80;64.60;;;22.10;41.20;98456.13;4982059;28;114508;-82
2023/07/03 08:03:32;;;;;;;;;;;21.80;64.60;;;22.15;41.28;98464.16;4978317;28;124890;-83
2023/07/03 08:06:03;;;;;;;;;;;21.80;64.70;;;22.23;41.14;98463.00;4968981;28;123423;-83
2023/07/03 08:08:32;;;;;;;;;;;21.90;64.90;;;22.30;41.39;98463.03;4973272;28;114264;-82
2023/07/03 08:11:01;;;;;;;;;;;21.90;65.00;;;22.35;41.09;98462.59;4993116;28;113498;-83
2023/07/03 08:13:29;;;;;;;;;;;22.00;65.00;;;22.42;40.88;98459.81;4977273;28;123090;-84
2023/07/03 08:15:56;;;;;;;;;;;22.00;64.90;;;22.48;41.09;98458.19;4989213;28;124161;-82
2023/07/03 08:18:23;;;;;;;;;;;22.10;64.90;;;22.55;40.95;98462.25;4988798;28;114505;-82
2023/07/03 08:20:50;;;;;;;;;;;22.10;64.90;;;22.61;40.91;98455.00;4975685;28;113017;-83
2023/07/03 08:23:17;;;;;;;;;;;22.20;64.90;;;22.65;40.79;98467.88;4990680;28;124808;-82
2023/07/03 08:25:43;;;;;;;;;;;22.20;64.80;;;22.71;40.73;98469.09;4989728;28;124126;-82
2023/07/03 08:28:09;;;;;;;;;;;22.30;65.10;;;22.74;41.11;98478.75;4974228;28;114202;-82
2023/07/03 08:30:38;;;;;;;;;;;22.30;65.50;;;22.70;41.31;98475.94;4990357;28;113286;-82
2023/07/03 08:33:04;;;;;;;;;;;22.30;65.70;;;22.69;41.24;98476.34;4989243;28;124389;-83
2023/07/03 08:35:33;;;;;;;;;;;22.30;65.70;;;22.64;41.30;98469.09;4978505;28;124028;-83
2023/07/03 08:37:59;;;;;;;;;;;22.30;65.80;;;22.62;41.39;98470.69;4986890;28;114675;-82
2023/07/03 08:40:28;;;;;;;;;;;22.30;65.90;;;22.67;41.58;98481.56;4992157;28;114838;-83
2023/07/03 08:42:58;;;;;;;;;;;22.30;66.00;;;22.67;41.82;98475.91;4990545;28;124329;-83
2023/07/03 08:45:35;;;;;;;;;;;22.30;66.10;;;22.70;41.77;98483.56;4987297;28;123686;-83
2023/07/03 08:48:05;;;;;;;;;;;22.30;66.30;;;22.70;41.37;98477.94;5005977;28;114489;-83
2023/07/03 08:50:32;;;;;;;;;;;21.50;65.60;;;22.72;41.87;98478.34;4987046;28;114008;-83
2023/07/03 08:53:04;;;;;;;;;;;22.30;66.40;;;22.74;41.90;98480.78;4978727;28;124614;-83
2023/07/03 08:55:38;;;;;;;;;;;22.40;66.50;;;22.78;41.88;98470.28;4988677;28;124003;-83
2023/07/03 08:58:04;;;;;;;;;;;22.40;66.40;;;22.84;41.70;98472.31;4991975;28;117013;-83
2023/07/03 09:00:35;;;;;;;;;;;22.40;66.40;;;22.86;41.59;98478.34;4973427;28;113908;-83
2023/07/03 09:03:24;;;;;;;;;;;22.50;66.30;;;22.86;41.64;98469.91;4976695;28;124039;-82
2023/07/03 09:06:12;;;;;;;;;;;22.50;66.20;;;22.87;41.58;98482.78;4990801;28;123768;-83
2023/07/03 09:08:49;;;;;;;;;;;22.50;66.10;;;22.86;41.15;98481.19;4980921;28;114386;-83
2023/07/03 09:11:17;;;;;;;;;;;22.50;65.80;;;22.84;41.09;98480.78;4989731;28;114290;-83
2023/07/03 09:13:47;;;;;;;;;;;22.50;65.60;;;22.82;41.23;98483.19;4988074;28;123884;-83
2023/07/03 09:16:16;;;;;;;;;;;22.50;65.20;;;22.82;40.94;98480.34;4988322;28;123950;-83
2023/07/03 09:18:46;;;;;;;;;;;22.50;65.20;;;22.85;41.09;98473.91;4988261;28;114659;-83
2023/07/03 09:21:12;;;;;;;;;;;22.50;65.20;;;22.91;41.13;98477.94;4987672;28;113970;-83
2023/07/03 09:23:45;;;;;;;;;;;22.60;65.30;;;22.98;40.82;98488.44;4988284;28;124561;-83
2023/07/03 09:26:18;;;;;;;;;;;22.60;65.30;;;23.01;40.90;98482.00;4988568;28;124357;-83
2023/07/03 09:28:45;;;;;;;;;;;22.60;65.20;;;23.03;40.28;98481.59;4988198;28;115894;-83
2023/07/03 09:31:12;;;;;;;;;;;22.60;65.00;;;23.02;40.34;98482.78;4986958;28;114890;-84
2023/07/03 09:33:41;;;;;;;;;;;22.60;64.70;;;23.01;40.08;98478.38;4988753;28;124579;-82
2023/07/03 09:36:20;;;;;;;;;;;22.60;64.40;;;23.00;40.27;98479.56;4991309;28;123513;-83
2023/07/03 09:38:49;;;;;;;;;;;22.60;64.20;;;23.05;40.50;98482.81;4988351;28;114754;-83
2023/07/03 09:41:29;;;;;;;;;;;22.70;64.30;;;23.12;39.57;98476.34;4989005;28;113940;-83
2023/07/03 09:43:56;;;;;;;;;;;22.70;63.50;;;23.17;39.09;98484.38;4987193;28;124307;-83
2023/07/03 09:46:28;;;;;;;;;;;22.70;62.90;;;23.21;38.88;98473.09;4988075;28;124587;-84
2023/07/03 09:48:55;;;;;;;;;;;22.70;62.70;;;23.25;38.41;98466.25;4988959;28;114191;-82
2023/07/03 09:51:28;;;;;;;;;;;22.80;62.10;;;23.30;38.21;98474.31;4989469;28;113429;-82
2023/07/03 09:53:59;;;;;;;;;;;22.80;61.60;;;23.35;38.13;98467.44;4987298;28;124445;-82
2023/07/03 09:56:29;;;;;;;;;;;22.90;61.20;;;23.41;37.29;98465.81;4989341;28;123865;-82
2023/07/03 09:59:01;;;;;;;;;;;23.00;60.50;;;23.41;37.12;98477.09;4986882;28;114213;-82
2023/07/03 10:01:31;;;;;;;;;;;23.00;59.70;;;23.39;37.18;98462.59;4988246;28;113727;-82
2023/07/03 10:04:14;;;;;;;;;;;23.00;59.70;;;23.35;36.80;98478.72;4987195;28;123557;-82
2023/07/03 10:07:03;;;;;;;;;;;23.00;59.10;;;23.33;36.79;98481.16;4986852;28;123985;-82
2023/07/03 10:09:32;;;;;;;;;;;23.00;58.70;;;23.33;36.33;98476.31;4988707;28;115255;-82
2023/07/03 10:12:16;;;;;;;;;;;23.00;58.10;;;23.36;36.10;98481.13;4988515;28;113759;-82
2023/07/03 10:14:47;;;;;;;;;;;23.00;58.10;;;23.37;35.23;98491.22;4988606;28;123681;-82
2023/07/03 10:17:15;;;;;;;;;;;23.00;56.90;;;23.36;35.29;98483.16;4985657;28;123912;-82
2023/07/03 10:19:50;;;;;;;;;;;23.00;56.50;;;23.35;35.26;98473.88;4969502;28;114915;-82
2023/07/03 10:22:18;;;;;;;;;;;23.00;56.60;;;23.42;35.46;98472.25;4990092;28;114795;-81
2023/07/03 10:24:48;;;;;;;;;;;23.00;56.70;;;23.50;35.38;98459.75;4988016;28;124505;-81
2023/07/03 10:27:19;;;;;;;;;;;23.10;57.00;;;23.56;35.14;98491.94;4985995;28;125542;-81
2023/07/03 10:29:49;;;;;;;;;;;23.10;56.40;;;23.54;34.72;98474.66;4990047;28;114814;-81
2023/07/03 10:32:20;;;;;;;;;;;23.10;55.70;;;23.51;34.80;98486.75;4985094;28;113759;-81
2023/07/03 10:35:14;;;;;;;;;;;23.10;55.80;;;23.50;34.73;98473.84;4971274;28;124152;-82
2023/07/03 10:37:49;;;;;;;;;;;23.10;55.80;;;23.54;34.96;98474.66;4983697;28;123590;-82
2023/07/03 10:40:28;;;;;;;;;;;23.20;56.10;;;23.64;34.79;98465.31;4989112;28;114079;-81
2023/07/03 10:42:57;;;;;;;;;;;23.20;56.00;;;23.77;34.95;98451.59;4986437;28;113900;-81
2023/07/03 10:45:27;;;;;;;;;;;23.30;56.00;;;23.95;33.94;98468.47;4970970;28;123277;-81
2023/07/03 10:48:12;;;;;;;;;;;23.50;55.10;;;24.04;33.48;98485.75;4986365;28;124167;-81
2023/07/03 10:50:51;;;;;;;;;;;23.60;54.10;;;24.16;33.09;98471.19;4984553;28;115068;-81
2023/07/03 10:53:47;;;;;;;;;;;23.60;54.00;;;24.24;33.32;98477.59;4986479;28;113697;-81
2023/07/03 10:56:21;;;;;;;;;;;23.70;54.10;;;24.30;33.24;98473.09;4988895;28;124948;-81
2023/07/03 10:58:57;;;;;;;;;;;23.80;54.10;;;24.33;33.28;98468.66;4984688;28;124145;-81
2023/07/03 11:01:31;;;;;;;;;;;23.90;54.30;;;24.37;33.29;98475.91;4986838;28;114616;-83
2023/07/03 11:04:19;;;;;;;;;;;23.90;54.40;;;24.40;33.68;98475.06;4985891;28;114243;-83
2023/07/03 11:07:18;;;;;;;;;;;23.90;54.60;;;24.48;33.74;98475.06;4984395;28;124373;-82
2023/07/03 11:10:16;;;;;;;;;;;24.00;54.80;;;24.49;34.20;98466.16;4987493;28;124110;-83
2023/07/03 11:12:53;;;;;;;;;;;24.00;54.80;;;24.58;33.62;98465.69;4983587;28;116040;-82
2023/07/03 11:15:36;;;;;;;;;;;24.10;54.50;;;24.61;33.69;98479.78;4984895;28;114918;-82
2023/07/03 11:18:26;;;;;;;;;;;24.20;54.50;;;24.64;32.83;98467.66;4990440;28;123298;-82
2023/07/03 11:21:14;;;;;;;;;;;24.20;53.50;;;24.62;32.87;98458.78;4988831;28;123982;-82